WEATHER DATA

YESTERDAY
Time Temp. Dewp. Hum. Wind dir Wind speed Wind gust Bar. 1h Prec. 24h Prec.
00:00 11.4 11.4 100 345 0.3 1.7 1018 0.0000 0.0000
00:10 11.4 11.4 100 324 0.3 1.1 1018 0.0000 0.0000
00:20 11.4 11.4 100 338 0.3 0.8 1018.1 0.0000 0.0000
00:30 11.5 11.5 100 357 0.3 2.2 1018.2 0.0000 0.0000
00:40 11.5 11.5 100 331 0.8 2.2 1018.4 0.0000 0.0000
00:50 11.5 11.5 100 349 0.8 2.2 1018.3 0.0000 0.0000
01:01 11.5 11.5 100 344 0.8 1.7 1018.4 0.0000 0.0000
01:11 11.5 11.5 100 333 0.8 1.7 1018.4 0.0000 0.0000
01:20 11.5 11.5 100 333 0.8 1.7 1018.4 0.0000 0.0000
01:31 11.4 11.4 100 349 0.8 2.2 1018.5 0.0000 0.0000
01:41 11.4 11.4 100 354 0.8 1.7 1018.6 0.0000 0.0000
01:51 11.4 11.4 100 338 0.3 2.5 1018.6 0.0000 0.0000
02:01 11.4 11.4 100 337 0.3 1.4 1018.6 0.0000 0.0000
02:11 11.4 11.4 100 347 0.8 2.2 1018.6 0.0000 0.0000
02:21 11.4 11.4 100 335 0.8 2.2 1018.7 0.0000 0.0000
02:31 11.4 11.4 100 331 0.3 1.4 1018.6 0.0000 0.0000
02:42 11.5 11.5 100 334 0.8 1.4 1018.6 0.0000 0.0000
02:52 11.5 11.5 100 335 0.8 1.4 1018.6 0.0000 0.0000
03:01 11.5 11.5 100 328 0.3 1.4 1018.6 0.0000 0.0000
03:11 11.5 11.5 100 346 0.8 1.7 1018.6 0.0000 0.0000
03:22 11.5 11.5 100 330 0.8 1.7 1018.6 0.0000 0.0000
03:32 11.5 11.5 100 346 0.3 1.7 1018.7 0.0000 0.0000
03:42 11.5 11.5 100 345 0.3 1.7 1018.6 0.0000 0.0000
03:52 11.5 11.5 100 343 0.3 1.1 1018.5 0.0000 0.0000
04:02 11.6 11.6 100 338 0.3 1.4 1018.5 0.0000 0.0000
04:12 11.6 11.6 100 352 0.3 2.2 1018.6 0.0000 0.0000
04:22 11.6 11.6 100 349 0.3 1.1 1018.6 0.0000 0.0000
04:33 11.6 11.6 100 338 0.8 3.1 1018.6 0.0000 0.0000
04:43 11.6 11.6 100 0 0.8 2.2 1018.6 0.0000 0.0000
04:52 11.7 11.7 100 338 0.8 2.2 1018.7 0.0000 0.0000
05:03 11.7 11.7 100 336 0.3 1.1 1018.8 0.0000 0.0000
05:13 11.7 11.7 100 326 0.3 0.8 1018.7 0.0000 0.0000
05:23 11.7 11.7 100 310 0.3 1.4 1018.7 0.0000 0.0000
05:33 11.7 11.7 100 325 0.3 2.2 1018.7 0.0000 0.0000
05:44 11.7 11.7 100 343 0.3 1.4 1018.7 0.0000 0.0000
05:53 11.7 11.7 100 321 0.8 1.7 1018.8 0.0000 0.0000
06:03 11.7 11.7 100 315 0.3 1.4 1018.8 0.0000 0.0000
06:13 11.8 11.8 100 323 0.3 1.7 1018.9 0.0000 0.0000
06:24 11.8 11.8 100 345 0.3 1.7 1018.9 0.0000 0.0000
06:34 11.8 11.8 100 318 0.3 1.4 1019.1 0.0000 0.0000
06:43 11.8 11.8 100 329 0.8 2.2 1019.1 0.0000 0.0000
06:49 11.8 11.8 100 318 0.8 2.2 1019.1 0.0000 0.0000
06:59 11.9 11.9 100 315 0.3 2.2 1019.1 0.0000 0.0000
07:09 11.9 11.9 100 327 0.8 2.2 1019.1 0.0000 0.0000
07:19 11.9 11.9 100 315 0.8 2.5 1019 0.0000 0.0000
07:29 11.9 11.9 100 324 0.3 1.1 1019.1 0.0000 0.0000
07:40 11.9 11.9 100 322 0.3 1.7 1019.3 0.0000 0.0000
07:50 11.9 11.9 100 329 0.3 1.7 1019.5 0.0000 0.0000
07:59 12 12 100 2 0.8 1.7 1019.8 0.0000 0.0000
08:10 12 12 100 330 0.3 1.4 1019.9 0.0000 0.0000
08:20 12 12 100 333 0.3 2.2 1020 0.0000 0.0000
08:45 12.1 12.1 100 322 0.3 1.4 1020.3 0.0000 0.0000
08:55 12.1 12.1 100 353 0.3 1.1 1020.3 0.0000 0.0000
09:05 12.1 12.1 100 331 0.3 1.4 1020.3 0.0000 0.0000
09:16 12.2 12.2 100 329 0.3 1.7 1020.3 0.0000 0.0000
09:27 12.2 12.2 100 350 0.3 1.4 1020.7 0.0000 0.0000
09:37 12.2 12.2 100 354 0.3 1.4 1021 0.0000 0.0000
09:46 12.2 12.2 100 349 0.3 1.1 1021 0.0000 0.0000
09:56 12.3 12.3 100 343 0.3 1.1 1021.1 0.0000 0.0000
10:07 12.4 12.4 100 343 0.3 1.1 1021.1 0.0000 0.0000
10:17 12.4 12.4 100 323 0.3 0.8 1021.3 0.0000 0.0000
10:27 12.5 12.5 100 341 0.3 1.1 1021.4 0.0000 0.0000
10:37 12.6 12.6 100 349 0.3 0.8 1021.7 0.0990 0.1000
10:53 12.7 12.7 100 334 0.3 1.1 1021.7 0.0990 0.1000
11:03 12.8 12.8 100 348 0.3 1.1 1021.7 0.0990 0.1000
11:12 12.9 12.9 100 329 0.3 1.1 1021.6 0.0990 0.1000
11:23 12.9 12.9 100 315 0.3 1.1 1021.6 0.0990 0.1000
11:33 13.1 13.1 100 339 0.3 1.1 1021.5 0.0000 0.1000
11:42 13.2 13.2 100 315 0.3 1.1 1021.6 0.0000 0.1000
11:53 13.3 13.3 100 308 0.3 0.8 1021.6 0.0000 0.1000
12:04 13.5 13.5 100 335 0.3 1.1 1021.8 0.0000 0.1000
12:10 13.5 13.5 100 351 0.3 1.1 1022 0.0000 0.1000
12:44 13.8 13.8 100 339 0.3 1.1 1021.9 0.0000 0.1000
12:55 14 14 100 334 0.3 0.8 1021.9 0.0000 0.1000
13:05 14 14 100 320 0.3 0.8 1021.8 0.0000 0.1000
13:11 14 14 100 270 0.3 0.8 1021.9 0.0000 0.1000
13:16 13.9 13.9 100 270 0.3 0.8 1021.9 0.0000 0.1000
13:26 13.9 13.9 100 270 0.3 1.1 1021.9 0.0000 0.1000
13:36 13.9 13.9 100 270 0.3 0.8 1021.9 0.0000 0.1000
13:46 13.8 13.8 100 270 0.3 1.4 1021.9 0.0000 0.1000
13:57 13.7 13.7 100 270 0.3 0.8 1022 0.0990 0.2000
14:06 13.6 13.6 100 302 0.3 1.1 1022 0.0990 0.2000
14:17 13.6 13.6 100 270 0.3 1.1 1022 0.0990 0.2000
14:27 13.6 13.6 100 315 0.3 0.8 1021.9 0.0990 0.2000
14:37 13.6 13.6 100 270 0.3 1.1 1022 0.0990 0.2000
14:47 13.6 13.6 100 270 0.3 1.1 1021.9 0.0990 0.2000
14:58 13.6 13.6 100 270 0.8 1.7 1022.1 0.0000 0.2000
15:07 13.6 13.6 100 270 0.3 1.4 1021.9 0.0000 0.2000
15:17 13.6 13.6 100 270 0.8 1.7 1021.9 0.0000 0.2000
15:28 13.5 13.5 100 270 0.3 1.1 1021.6 0.0000 0.2000
15:38 13.5 13.3 99 270 0.3 2.2 1021.7 0.0000 0.2000
15:48 13.4 13.2 99 270 0.3 1.4 1021.7 0.0000 0.2000
15:57 13.4 13.1 98 270 0.3 1.4 1021.5 0.0000 0.2000
16:08 13.4 12.9 97 270 0.3 2.2 1021.7 0.0000 0.2000
16:18 13.3 12.7 96 270 0.3 1.1 1021.7 0.0000 0.2000
16:28 13.3 12.7 96 270 0.3 1.1 1021.8 0.0000 0.2000
16:38 13.3 12.7 96 270 0.3 1.1 1022 0.0000 0.2000
16:53 13.2 12.4 95 270 0.3 0.8 1022.1 0.0000 0.2000
17:08 13.1 12.3 95 270 0.3 0.8 1022.1 0.0000 0.2000
17:19 13 12.2 95 270 0.3 0.8 1022 0.0000 0.2000
17:29 13 12.2 95 315 0.3 0.8 1022 0.0000 0.2000
17:39 13 12.2 95 0 0.8 1022 0.0000 0.2000
17:49 12.9 12 94 270 0.3 0.8 1021.8 0.0000 0.2000
17:59 12.8 11.9 94 315 0.3 0.8 1021.9 0.0000 0.2000
18:09 12.8 12 95 302 0.3 0.8 1021.9 0.0000 0.2000
18:19 12.8 12 95 321 0.3 0.8 1021.9 0.0000 0.2000
18:30 12.6 11.8 95 356 0.3 0.8 1021.9 0.0000 0.2000
18:40 12.4 11.6 95 356 0.3 0.8 1021.8 0.0000 0.2000
18:49 12.2 11.6 96 14 0.3 0.8 1021.9 0.0000 0.2000
18:59 12 11.4 96 347 0.3 0.8 1022 0.0000 0.2000
19:10 11.9 11.3 96 356 0.3 0.8 1022 0.0000 0.2000
19:20 11.7 11.2 97 352 0.3 0.8 1022.1 0.0000 0.2000
19:30 11.6 11.1 97 3 0.3 0.8 1022.2 0.0000 0.2000
19:40 11.5 11 97 351 0.3 0.8 1022.3 0.0000 0.2000
19:50 11.4 11.1 98 355 0.3 0.8 1022.4 0.0000 0.2000
20:00 11.4 11.1 98 356 0.3 0.8 1022.4 0.0000 0.2000
20:10 11.3 11 98 352 0.3 0.8 1022.4 0.0000 0.2000
20:21 11.3 11 98 0 0.3 0.8 1022.3 0.0000 0.2000
20:27 11.3 11 98 0 0.8 1022.4 0.0000 0.2000
20:36 11.1 10.8 98 6 0.3 0.8 1022.4 0.0000 0.2000
20:45 11 10.7 98 7 0.3 0.8 1022.4 0.0000 0.2000
20:57 10.9 10.6 98 356 0.3 0.8 1022.3 0.0000 0.2000
21:07 10.8 10.5 98 8 0.3 0.8 1022.2 0.0000 0.2000
21:17 10.7 10.5 99 9 0.3 0.8 1022.2 0.0000 0.2000
21:27 10.7 10.5 99 0 0.3 0.8 1022.1 0.0000 0.2000
21:35 10.6 10.4 99 356 0.3 0.8 1021.8 0.0000 0.2000
21:56 10.4 10.2 99 0 0.8 1021.7 0.0000 0.2000
22:03 10.4 10.2 99 0 0.8 1021.7 0.0000 0.2000
22:17 10.3 10 98 24 0.3 0.8 1021.7 0.0000 0.2000
22:26 10.2 10 99 0 0.8 1021.8 0.0000 0.2000
22:41 10.1 9.9 99 356 0.3 0.8 1021.9 0.0000 0.2000
22:52 10 9.9 99 0 0.3 0.8 1021.8 0.0000 0.2000
23:03 10 9.9 99 0 0.3 0.8 1021.8 0.0000 0.2000
23:12 9.9 9.8 99 5 0.3 0.8 1021.7 0.0000 0.2000
23:23 9.8 9.7 99 26 0.3 0.8 1021.8 0.0000 0.2000
23:33 9.7 9.6 99 4 0.3 0.8 1021.8 0.0000 0.2000
23:42 9.7 9.7 100 4 0.3 0.8 1021.8 0.0000
23:53 9.7 9.7 100 12 0.3 0.8 1021.7 0.0000

DAY STATISTIC

2019-10-22
TEMPERATURE
AVERAGE
12.1
HIGH
14.0
12:55
LOW
9.7
23:33
PRESSURE
AVERAGE
1020.7
HIGH
1022.4
19:50
LOW
1018.0
00:00
DEWPOINT
AVERAGE
11.9
HIGH
14.0
12:55
LOW
9.6
23:33
HUMIDITY
AVERAGE
99
HIGH
100
00:00
LOW
94
17:49
WIND SPEED
AVERAGE
0.4
HIGH
0.8
00:40
WIND GUST
AVERAGE
1.3
HIGH
3.1
04:33
WIND DIRECTION
PREVAILING
N
43.5%
N
43.5
NE
1.4
E
0.0
SE
0.0
S
0.0
SW
0.0
W
17.4
NW
34.1
PRECIPITATION
RAIN HOUR
0.1
RAIN DAY
0.2
TEMPERATURE (°C)
LOW
9.7
HIGH
14.0
AVERAGE
12.1
PRESSURE (hpa)
LOW
1018.0
HIGH
1022.4
AVERAGE
1020.7
DEVICE